createdAt,value
2022-11-24T00:01:15.734Z,8.60
2022-11-24T00:03:45.875Z,8.33
2022-11-24T00:06:16.017Z,7.87
2022-11-24T00:08:45.866Z,8.33
2022-11-24T00:11:16.124Z,8.63
2022-11-24T00:13:44.298Z,8.50
2022-11-24T00:16:14.526Z,9.07
2022-11-24T00:18:44.092Z,9.13
2022-11-24T00:21:13.919Z,9.47
2022-11-24T00:23:42.172Z,9.90
2022-11-24T00:26:12.057Z,9.40
2022-11-24T00:28:41.016Z,10.97
2022-11-24T00:31:17.741Z,10.70
2022-11-24T00:33:46.435Z,9.97
2022-11-24T00:36:16.961Z,10.50
2022-11-24T00:38:45.478Z,9.57
2022-11-24T00:41:14.078Z,10.10
2022-11-24T00:43:41.968Z,9.80
2022-11-24T00:46:10.181Z,10.30
2022-11-24T00:48:38.115Z,9.97
2022-11-24T00:51:08.448Z,10.80
2022-11-24T00:53:37.736Z,9.50
2022-11-24T00:56:05.945Z,11.70
2022-11-24T00:58:34.127Z,9.90
2022-11-24T01:01:03.887Z,10.27
2022-11-24T01:03:32.112Z,11.03
2022-11-24T01:06:04.318Z,9.73
2022-11-24T01:08:32.416Z,9.93
2022-11-24T01:11:10.463Z,9.67
2022-11-24T01:13:38.833Z,9.83
2022-11-24T01:16:07.194Z,9.73
2022-11-24T01:18:35.165Z,9.63
2022-11-24T01:21:09.787Z,10.87
2022-11-24T01:23:38.231Z,9.20
2022-11-24T01:26:07.288Z,9.70
2022-11-24T01:28:40.536Z,9.43
2022-11-24T01:31:10.546Z,8.90
2022-11-24T01:33:38.735Z,8.90
2022-11-24T01:36:07.840Z,9.47
2022-11-24T01:38:35.887Z,10.20
2022-11-24T01:41:06.068Z,9.17
2022-11-24T01:43:34.408Z,8.60
2022-11-24T01:46:07.908Z,8.50
2022-11-24T01:48:41.660Z,8.57
2022-11-24T01:51:14.211Z,9.40
2022-11-24T01:53:45.238Z,8.80
2022-11-24T01:56:14.658Z,9.17
2022-11-24T01:58:47.306Z,8.20
2022-11-24T02:01:16.578Z,8.53
2022-11-24T02:03:47.249Z,8.10
2022-11-24T02:06:20.392Z,8.13
2022-11-24T02:08:54.412Z,8.23
2022-11-24T02:11:25.319Z,8.23
2022-11-24T02:13:55.411Z,8.57
2022-11-24T02:16:24.843Z,8.17
2022-11-24T02:18:53.014Z,9.40
2022-11-24T02:21:21.251Z,9.10
2022-11-24T02:23:55.990Z,8.47
2022-11-24T02:26:42.380Z,8.20
2022-11-24T02:29:11.529Z,8.47
2022-11-24T02:31:40.787Z,8.87
2022-11-24T02:34:08.691Z,8.97
2022-11-24T02:36:36.633Z,8.47
2022-11-24T02:39:04.706Z,9.40
2022-11-24T02:41:32.636Z,9.03
2022-11-24T02:44:03.367Z,9.00
2022-11-24T02:46:31.364Z,8.47
2022-11-24T02:48:59.312Z,8.43
2022-11-24T02:51:28.023Z,7.13
2022-11-24T02:53:56.034Z,8.57
2022-11-24T02:56:23.938Z,8.27
2022-11-24T02:58:51.792Z,8.40
2022-11-24T03:01:21.126Z,8.50
2022-11-24T03:03:49.069Z,11.07
2022-11-24T03:06:16.987Z,9.80
2022-11-24T03:08:44.877Z,11.10
2022-11-24T03:11:12.752Z,10.23
2022-11-24T03:13:40.671Z,11.37
2022-11-24T03:16:10.566Z,10.20
2022-11-24T03:18:39.809Z,9.80
2022-11-24T03:21:08.186Z,9.93
2022-11-24T03:23:36.381Z,10.50
2022-11-24T03:26:11.533Z,10.20
2022-11-24T03:28:39.368Z,9.53
2022-11-24T03:31:08.025Z,9.80
2022-11-24T03:33:36.341Z,9.27
2022-11-24T03:36:06.885Z,9.37
2022-11-24T03:38:34.920Z,9.70
2022-11-24T03:41:03.118Z,10.50
2022-11-24T03:43:31.187Z,10.10
2022-11-24T03:45:59.200Z,13.77
2022-11-24T03:48:27.154Z,11.50
2022-11-24T03:50:57.058Z,10.70
2022-11-24T03:53:28.876Z,11.17
2022-11-24T03:55:57.012Z,11.70
2022-11-24T03:58:25.529Z,11.27
2022-11-24T04:00:54.917Z,10.77
2022-11-24T04:03:23.202Z,9.87
2022-11-24T04:05:51.662Z,10.17
2022-11-24T04:08:20.011Z,11.40
2022-11-24T04:10:52.726Z,10.70
2022-11-24T04:13:21.759Z,9.50
2022-11-24T04:15:50.003Z,11.90
2022-11-24T04:18:18.199Z,9.43
2022-11-24T04:20:46.464Z,9.47
2022-11-24T04:23:14.379Z,9.27
2022-11-24T04:25:43.699Z,10.77
2022-11-24T04:28:13.177Z,11.87
2022-11-24T04:30:44.700Z,9.13
2022-11-24T04:33:13.515Z,12.40
2022-11-24T04:35:41.495Z,11.70
2022-11-24T04:38:09.360Z,9.93
2022-11-24T04:40:38.057Z,11.50
2022-11-24T04:43:05.962Z,9.03
2022-11-24T04:45:35.240Z,8.53
2022-11-24T04:48:03.116Z,10.30
2022-11-24T04:50:31.011Z,9.40
2022-11-24T04:52:58.881Z,8.30
2022-11-24T04:55:26.764Z,11.53
2022-11-24T04:57:54.651Z,9.97
2022-11-24T05:00:22.684Z,10.70
2022-11-24T05:02:52.047Z,8.83
2022-11-24T05:05:20.011Z,9.60
2022-11-24T05:07:47.967Z,7.13
2022-11-24T05:10:33.587Z,9.53
2022-11-24T05:13:01.744Z,6.87
2022-11-24T05:15:30.280Z,10.13
2022-11-24T05:17:59.577Z,11.30
2022-11-24T05:20:27.538Z,14.87
2022-11-24T05:22:55.402Z,9.33
2022-11-24T05:25:23.273Z,9.13
2022-11-24T05:27:51.527Z,9.03
2022-11-24T05:30:19.510Z,12.37
2022-11-24T05:32:47.388Z,11.50
2022-11-24T05:35:17.055Z,9.03
2022-11-24T05:37:44.979Z,9.10
2022-11-24T05:40:12.884Z,12.07
2022-11-24T05:42:47.669Z,9.67
2022-11-24T05:45:18.584Z,11.17
2022-11-24T05:47:47.267Z,11.03
2022-11-24T05:50:19.607Z,19.13
2022-11-24T05:52:47.886Z,18.40
2022-11-24T05:55:16.603Z,16.27
2022-11-24T05:57:44.638Z,15.13
2022-11-24T06:00:13.335Z,13.43
2022-11-24T06:02:41.690Z,9.23
2022-11-24T06:05:10.129Z,12.10
2022-11-24T06:07:39.567Z,12.93
2022-11-24T06:10:07.957Z,11.20
2022-11-24T06:12:36.207Z,10.07
2022-11-24T06:15:04.488Z,11.97
2022-11-24T06:17:32.386Z,8.77
2022-11-24T06:20:00.425Z,7.30
2022-11-24T06:22:28.310Z,10.23
2022-11-24T06:24:57.943Z,6.77
2022-11-24T06:27:26.231Z,8.73
2022-11-24T06:29:54.310Z,9.87
2022-11-24T06:32:22.153Z,8.87
2022-11-24T06:34:50.088Z,11.10
2022-11-24T06:37:17.984Z,8.23
2022-11-24T06:39:45.859Z,9.60
2022-11-24T06:42:18.828Z,10.07
2022-11-24T06:44:47.168Z,15.77
2022-11-24T06:47:15.266Z,13.97
2022-11-24T06:49:43.187Z,9.17
2022-11-24T06:52:11.165Z,11.90
2022-11-24T06:54:39.122Z,9.57
2022-11-24T06:57:06.980Z,9.17
2022-11-24T06:59:36.283Z,11.47
2022-11-24T07:02:04.251Z,10.07
2022-11-24T07:04:32.419Z,10.87
2022-11-24T07:07:00.627Z,9.33
2022-11-24T07:09:28.631Z,7.47
2022-11-24T07:11:57.269Z,11.37
2022-11-24T07:14:25.252Z,9.87
2022-11-24T07:16:54.710Z,6.27
2022-11-24T07:19:25.032Z,9.20
2022-11-24T07:21:53.245Z,10.50
2022-11-24T07:24:21.143Z,7.63
2022-11-24T07:26:49.003Z,9.90
2022-11-24T07:29:16.940Z,10.27
2022-11-24T07:31:46.186Z,6.07
2022-11-24T07:34:15.750Z,8.97
2022-11-24T07:36:45.249Z,8.27
2022-11-24T07:39:13.170Z,8.40
2022-11-24T07:41:41.034Z,6.37
2022-11-24T07:44:09.247Z,7.30
2022-11-24T07:46:37.113Z,5.87
2022-11-24T07:49:05.049Z,6.37
2022-11-24T07:51:34.305Z,6.47
2022-11-24T07:54:02.347Z,6.13
2022-11-24T07:56:30.221Z,9.57
2022-11-24T07:58:58.059Z,4.43
2022-11-24T08:01:25.993Z,8.97
2022-11-24T08:03:54.021Z,4.70
2022-11-24T08:06:25.419Z,5.00
2022-11-24T08:08:56.874Z,5.13
2022-11-24T08:11:25.178Z,6.33
2022-11-24T08:13:53.131Z,5.63
2022-11-24T08:16:21.676Z,3.53
2022-11-24T08:18:53.797Z,4.10
2022-11-24T08:21:23.453Z,6.50
2022-11-24T08:23:57.100Z,6.10
2022-11-24T08:26:25.862Z,5.23
2022-11-24T08:28:57.323Z,5.67
2022-11-24T08:31:27.394Z,4.57
2022-11-24T08:33:57.293Z,5.17
2022-11-24T08:36:25.240Z,6.07
2022-11-24T08:38:57.774Z,6.53
2022-11-24T08:41:27.041Z,6.87
2022-11-24T08:43:55.107Z,4.20
2022-11-24T08:46:23.912Z,4.83
2022-11-24T08:48:53.710Z,7.33
2022-11-24T08:51:26.081Z,6.90
2022-11-24T08:53:58.153Z,4.93
2022-11-24T08:56:26.669Z,4.50
2022-11-24T08:58:54.751Z,5.13
2022-11-24T09:01:23.028Z,7.23
2022-11-24T09:03:51.784Z,5.00
2022-11-24T09:06:22.982Z,5.40
2022-11-24T09:08:51.259Z,4.77
2022-11-24T09:11:20.667Z,4.40
2022-11-24T09:13:49.077Z,4.37
2022-11-24T09:16:18.963Z,5.43
2022-11-24T09:18:47.527Z,4.80
2022-11-24T09:21:18.843Z,4.27
2022-11-24T09:23:48.635Z,6.33
2022-11-24T09:26:19.521Z,5.90
2022-11-24T09:28:48.861Z,4.87
2022-11-24T09:31:18.968Z,5.73
2022-11-24T09:33:47.620Z,4.97
2022-11-24T09:36:15.646Z,5.60
2022-11-24T09:38:43.877Z,6.30
2022-11-24T09:41:47.217Z,5.80
2022-11-24T09:44:50.584Z,5.33
2022-11-24T09:47:27.103Z,6.13
2022-11-24T09:50:01.857Z,5.07
2022-11-24T09:52:40.578Z,6.87
2022-11-24T09:55:31.584Z,4.27
2022-11-24T09:58:07.427Z,7.70
2022-11-24T10:00:38.462Z,5.50
2022-11-24T10:03:07.192Z,4.77
2022-11-24T10:05:37.247Z,6.17
2022-11-24T10:08:20.749Z,6.03
2022-11-24T10:10:56.023Z,6.20
2022-11-24T10:13:41.247Z,8.17
2022-11-24T10:16:18.699Z,4.07
2022-11-24T10:19:03.307Z,8.03
2022-11-24T10:21:48.505Z,5.27
2022-11-24T10:24:32.256Z,5.90
2022-11-24T10:27:03.953Z,4.70
2022-11-24T10:29:38.230Z,3.37
2022-11-24T10:32:16.503Z,4.53
2022-11-24T10:34:46.074Z,5.73
2022-11-24T10:37:21.074Z,6.23
2022-11-24T10:40:00.318Z,7.97
2022-11-24T10:42:32.109Z,5.50
2022-11-24T10:45:01.683Z,6.63
2022-11-24T10:47:31.841Z,5.83
2022-11-24T10:50:03.561Z,6.63
2022-11-24T10:52:37.747Z,5.17
2022-11-24T10:55:07.242Z,6.07
2022-11-24T10:57:36.696Z,7.13
2022-11-24T11:00:28.676Z,3.10
2022-11-24T11:03:13.309Z,5.13
2022-11-24T11:05:44.204Z,5.10
2022-11-24T11:08:19.862Z,4.00
2022-11-24T11:10:49.978Z,3.70
2022-11-24T11:13:25.656Z,4.13
2022-11-24T11:15:54.599Z,4.57
2022-11-24T11:18:28.208Z,4.33
2022-11-24T11:20:57.961Z,3.83
2022-11-24T11:23:29.219Z,2.37
2022-11-24T11:26:20.055Z,2.70
2022-11-24T11:34:53.936Z,4.47
2022-11-24T11:37:23.037Z,3.73
2022-11-24T11:39:54.063Z,3.23
2022-11-24T11:42:59.929Z,3.07
2022-11-24T11:45:17.538Z,3.90
2022-11-24T11:47:50.962Z,3.33
2022-11-24T11:50:26.585Z,3.20
2022-11-24T11:53:10.579Z,3.97
2022-11-24T11:56:10.887Z,3.97
2022-11-24T11:58:50.748Z,5.53
2022-11-24T12:01:39.446Z,4.53
2022-11-24T12:04:17.726Z,3.80
2022-11-24T12:07:17.148Z,4.77
2022-11-24T12:09:57.675Z,2.57
2022-11-24T12:12:48.126Z,5.67
2022-11-24T12:15:24.748Z,4.33
2022-11-24T12:17:56.436Z,4.20
2022-11-24T12:20:48.950Z,3.73
2022-11-24T12:23:30.331Z,5.00
2022-11-24T12:26:04.120Z,6.27
2022-11-24T12:28:45.865Z,6.40
2022-11-24T12:31:21.656Z,3.40
2022-11-24T12:34:11.315Z,3.37
2022-11-24T12:36:53.846Z,4.57
2022-11-24T12:39:29.219Z,3.57
2022-11-24T12:42:08.190Z,3.77
2022-11-24T12:45:06.042Z,2.47
2022-11-24T12:47:44.361Z,2.83
2022-11-24T12:50:16.951Z,2.80
2022-11-24T12:52:57.145Z,1.93
2022-11-24T12:55:32.289Z,1.97
2022-11-24T12:58:11.256Z,3.50
2022-11-24T13:00:54.168Z,4.13
2022-11-24T13:03:37.348Z,4.37
2022-11-24T13:06:13.443Z,6.07
2022-11-24T13:08:42.130Z,5.27
2022-11-24T13:11:39.888Z,4.80
2022-11-24T13:14:13.117Z,5.23
2022-11-24T13:19:39.325Z,4.03
2022-11-24T13:22:19.634Z,4.90
2022-11-24T13:25:04.029Z,5.13
2022-11-24T13:27:45.735Z,4.73
2022-11-24T13:30:53.087Z,4.93
2022-11-24T13:33:35.147Z,5.60
2022-11-24T13:36:33.760Z,4.83
2022-11-24T13:39:04.010Z,5.13
2022-11-24T13:42:42.157Z,5.07
2022-11-24T13:45:00.937Z,5.43
2022-11-24T13:47:43.194Z,4.27
2022-11-24T13:50:16.020Z,7.10
2022-11-24T13:52:49.754Z,4.70
2022-11-24T13:55:32.680Z,3.80
2022-11-24T13:58:06.535Z,3.50
2022-11-24T14:00:37.990Z,3.87
2022-11-24T14:06:00.248Z,4.20
2022-11-24T14:08:32.454Z,3.93
2022-11-24T14:11:02.073Z,3.40
2022-11-24T14:13:31.459Z,4.90
2022-11-24T14:16:05.952Z,5.73
2022-11-24T14:18:34.756Z,6.23
2022-11-24T14:21:21.947Z,4.90
2022-11-24T14:23:52.251Z,6.03
2022-11-24T14:26:22.205Z,7.47
2022-11-24T14:28:51.205Z,3.53
2022-11-24T14:31:27.657Z,5.13
2022-11-24T14:34:15.026Z,2.80
2022-11-24T14:36:43.341Z,4.13
2022-11-24T14:39:14.198Z,3.93
2022-11-24T14:41:44.156Z,4.93
2022-11-24T14:44:20.275Z,6.13
2022-11-24T14:46:49.906Z,5.57
2022-11-24T14:49:20.380Z,4.83
2022-11-24T14:51:55.142Z,5.17
2022-11-24T14:54:24.694Z,5.80
2022-11-24T14:57:01.602Z,5.30
2022-11-24T14:59:31.182Z,6.27
2022-11-24T15:02:00.773Z,5.97
2022-11-24T15:05:00.836Z,4.33
2022-11-24T15:07:24.305Z,5.87
2022-11-24T15:09:54.605Z,7.23
2022-11-24T15:12:28.862Z,5.90
2022-11-24T15:14:59.876Z,7.10
2022-11-24T15:17:31.088Z,8.77
2022-11-24T15:20:03.169Z,6.70
2022-11-24T15:22:37.369Z,5.47
2022-11-24T15:25:27.624Z,5.67
2022-11-24T15:27:56.033Z,4.47
2022-11-24T15:30:24.400Z,5.37
2022-11-24T15:32:55.923Z,4.60
2022-11-24T15:35:25.260Z,4.73
2022-11-24T15:37:53.664Z,4.13
2022-11-24T15:40:21.633Z,4.47
2022-11-24T15:42:52.468Z,7.93
2022-11-24T15:45:21.574Z,5.20
2022-11-24T15:47:49.555Z,6.07
2022-11-24T15:50:19.724Z,6.37
2022-11-24T15:52:48.672Z,5.37
2022-11-24T15:55:21.945Z,7.47
2022-11-24T15:57:50.533Z,9.70
2022-11-24T16:00:20.745Z,9.43
2022-11-24T16:02:49.293Z,10.90
2022-11-24T16:05:19.156Z,9.33
2022-11-24T16:07:47.060Z,12.20
2022-11-24T16:10:27.034Z,11.67
2022-11-24T16:12:54.926Z,10.87
2022-11-24T16:15:22.820Z,12.07
2022-11-24T16:17:50.799Z,11.87
2022-11-24T16:20:20.350Z,14.70
2022-11-24T16:22:48.264Z,11.93
2022-11-24T16:25:16.322Z,14.00
2022-11-24T16:27:44.303Z,16.63
2022-11-24T16:30:16.078Z,16.83
2022-11-24T16:32:43.976Z,11.50
2022-11-24T16:35:11.865Z,10.93
2022-11-24T16:37:41.116Z,9.70
2022-11-24T16:40:10.230Z,9.73
2022-11-24T16:42:38.092Z,12.60
2022-11-24T16:45:06.659Z,12.77
2022-11-24T16:47:40.657Z,12.23
2022-11-24T16:50:09.993Z,15.23
2022-11-24T16:52:38.111Z,13.10
2022-11-24T16:55:09.669Z,10.97
2022-11-24T16:57:37.927Z,11.63
2022-11-24T17:00:06.838Z,11.07
2022-11-24T17:02:35.319Z,11.87
2022-11-24T17:05:03.711Z,14.87
2022-11-24T17:07:32.169Z,12.77
2022-11-24T17:10:00.629Z,13.10
2022-11-24T17:12:30.046Z,16.87
2022-11-24T17:15:30.452Z,16.13
2022-11-24T17:18:16.097Z,16.30
2022-11-24T17:20:36.042Z,16.90
2022-11-24T17:23:03.947Z,16.33
2022-11-24T17:25:33.376Z,16.77
2022-11-24T17:28:02.838Z,15.47
2022-11-24T17:30:30.740Z,13.13
2022-11-24T17:32:58.771Z,11.70
2022-11-24T17:35:26.674Z,13.53
2022-11-24T17:37:56.343Z,11.03
2022-11-24T17:40:29.041Z,13.23
2022-11-24T17:42:59.382Z,11.40
2022-11-24T17:45:29.738Z,10.30
2022-11-24T17:47:58.105Z,11.27
2022-11-24T17:50:26.678Z,10.50
2022-11-24T17:52:54.770Z,10.30
2022-11-24T17:55:22.892Z,10.53
2022-11-24T17:57:51.147Z,10.23
2022-11-24T18:00:19.774Z,14.33
2022-11-24T18:02:49.197Z,16.00
2022-11-24T18:05:17.312Z,14.40
2022-11-24T18:07:45.386Z,14.93
2022-11-24T18:10:13.377Z,21.57
2022-11-24T18:12:41.278Z,24.03
2022-11-24T18:15:09.928Z,24.20
2022-11-24T18:17:39.682Z,15.20
2022-11-24T18:20:10.290Z,13.57
2022-11-24T18:23:04.118Z,11.27
2022-11-24T18:25:26.003Z,10.03
2022-11-24T18:27:53.873Z,9.77
2022-11-24T18:30:22.016Z,7.70
2022-11-24T18:32:49.870Z,6.50
2022-11-24T18:35:19.470Z,7.37
2022-11-24T18:37:47.336Z,8.67
2022-11-24T18:40:15.650Z,11.83
2022-11-24T18:42:43.547Z,19.23
2022-11-24T18:45:12.258Z,22.07
2022-11-24T18:47:40.136Z,19.50
2022-11-24T18:50:09.646Z,24.70
2022-11-24T18:52:38.927Z,41.90
2022-11-24T18:55:07.589Z,43.00
2022-11-24T18:57:35.443Z,35.33
2022-11-24T19:00:03.727Z,32.93
2022-11-24T19:02:31.690Z,27.70
2022-11-24T19:04:59.625Z,21.53
2022-11-24T19:07:27.723Z,21.87
2022-11-24T19:09:56.994Z,17.50
2022-11-24T19:12:24.875Z,16.83
2022-11-24T19:14:52.842Z,16.50
2022-11-24T19:17:20.739Z,17.63
2022-11-24T19:19:48.641Z,16.57
2022-11-24T19:22:16.591Z,15.97
2022-11-24T19:24:45.207Z,12.10
2022-11-24T19:27:14.598Z,8.10
2022-11-24T19:29:43.275Z,8.60
2022-11-24T19:32:11.479Z,12.10
2022-11-24T19:34:39.656Z,11.57
2022-11-24T19:37:07.662Z,12.47
2022-11-24T19:39:35.547Z,13.40
2022-11-24T19:42:04.738Z,14.13
2022-11-24T19:44:34.362Z,12.30
2022-11-24T19:47:02.518Z,10.67
2022-11-24T19:49:30.414Z,9.80
2022-11-24T19:51:58.320Z,9.23
2022-11-24T19:54:26.205Z,9.50
2022-11-24T19:56:55.479Z,11.50
2022-11-24T19:59:26.358Z,8.10
2022-11-24T20:01:56.666Z,10.07
2022-11-24T20:04:24.798Z,10.93
2022-11-24T20:06:52.670Z,9.73
2022-11-24T20:09:20.598Z,10.10
2022-11-24T20:11:49.582Z,8.27
2022-11-24T20:14:19.255Z,10.10
2022-11-24T20:16:47.889Z,9.27
2022-11-24T20:19:18.875Z,11.63
2022-11-24T20:21:49.459Z,9.43
2022-11-24T20:24:19.583Z,9.13
2022-11-24T20:26:49.415Z,8.40
2022-11-24T20:29:17.930Z,11.70
2022-11-24T20:31:47.909Z,12.17
2022-11-24T20:34:17.503Z,10.73
2022-11-24T20:36:46.710Z,8.97
2022-11-24T20:39:16.483Z,9.53
2022-11-24T20:41:44.852Z,10.10
2022-11-24T20:44:16.353Z,11.07
2022-11-24T20:46:45.379Z,10.60
2022-11-24T20:49:15.768Z,13.33
2022-11-24T20:51:47.130Z,12.57
2022-11-24T20:54:16.044Z,15.07
2022-11-24T20:56:46.469Z,20.07
2022-11-24T20:59:16.092Z,13.37
2022-11-24T21:01:46.588Z,13.97
2022-11-24T21:04:19.732Z,17.27
2022-11-24T21:06:49.088Z,16.03
2022-11-24T21:09:17.254Z,18.87
2022-11-24T21:11:45.788Z,19.83
2022-11-24T21:14:13.971Z,20.83
2022-11-24T21:16:43.071Z,19.37
2022-11-24T21:19:12.751Z,18.20
2022-11-24T21:21:42.602Z,18.83
2022-11-24T21:24:14.429Z,18.97
2022-11-24T21:26:43.695Z,17.70
2022-11-24T21:29:14.169Z,12.57
2022-11-24T21:31:42.597Z,12.33
2022-11-24T21:34:11.051Z,10.67
2022-11-24T21:36:41.731Z,14.53
2022-11-24T21:39:13.927Z,13.67
2022-11-24T21:41:42.412Z,12.33
2022-11-24T21:44:12.083Z,14.07
2022-11-24T21:46:44.967Z,10.67
2022-11-24T21:49:17.362Z,11.07
2022-11-24T21:51:45.228Z,14.90
2022-11-24T21:54:14.544Z,11.47
2022-11-24T21:56:42.447Z,12.13
2022-11-24T21:59:10.364Z,11.43
2022-11-24T22:01:38.329Z,16.00
2022-11-24T22:04:06.538Z,15.67
2022-11-24T22:06:34.389Z,13.17
2022-11-24T22:09:02.373Z,14.17
2022-11-24T22:11:31.757Z,13.67
2022-11-24T22:13:59.635Z,13.30
2022-11-24T22:16:27.591Z,13.90
2022-11-24T22:18:55.573Z,13.90
2022-11-24T22:21:29.915Z,15.03
2022-11-24T22:23:58.369Z,11.27
2022-11-24T22:26:27.263Z,11.90
2022-11-24T22:28:57.800Z,12.23
2022-11-24T22:31:27.245Z,15.03
2022-11-24T22:33:56.416Z,13.77
2022-11-24T22:36:26.265Z,14.33
2022-11-24T22:38:55.519Z,12.77
2022-11-24T22:41:23.870Z,9.80
2022-11-24T22:43:52.148Z,10.60
2022-11-24T22:46:22.928Z,12.43
2022-11-24T22:48:53.176Z,9.50
2022-11-24T22:51:22.755Z,11.53
2022-11-24T22:53:52.529Z,12.73
2022-11-24T22:56:20.925Z,10.10
2022-11-24T22:58:49.389Z,10.07
2022-11-24T23:01:19.012Z,9.57
2022-11-24T23:03:48.922Z,10.50
2022-11-24T23:06:20.296Z,9.97
2022-11-24T23:08:48.243Z,31.03
2022-11-24T23:11:18.163Z,9.57
2022-11-24T23:13:46.191Z,9.60
2022-11-24T23:16:15.658Z,94.20
2022-11-24T23:18:44.206Z,124.70
2022-11-24T23:21:17.838Z,7.90
2022-11-24T23:23:46.059Z,18.43
2022-11-24T23:26:15.735Z,6.77
2022-11-24T23:28:44.236Z,8.73
2022-11-24T23:31:14.791Z,27.87
2022-11-24T23:33:43.110Z,6.97
2022-11-24T23:36:14.965Z,8.17
2022-11-24T23:38:43.456Z,6.00
2022-11-24T23:41:14.007Z,7.30
2022-11-24T23:43:43.174Z,10.80
2022-11-24T23:46:12.928Z,13.23
2022-11-24T23:48:41.513Z,13.67
2022-11-24T23:51:13.690Z,8.77
2022-11-24T23:53:42.295Z,9.77
2022-11-24T23:56:13.797Z,6.73
2022-11-24T23:58:41.732Z,8.07
